sensor_id;sensor_type;location;lat;lon;timestamp;pressure;altitude;pressure_sealevel;temperature;humidity
33404;BME280;19751;40.274;18.268;2022-08-19T00:01:24;100516.50;;;27.51;79.03
33404;BME280;19751;40.274;18.268;2022-08-19T00:03:50;100518.75;;;27.49;78.91
33404;BME280;19751;40.274;18.268;2022-08-19T00:06:16;100521.84;;;27.48;78.62
33404;BME280;19751;40.274;18.268;2022-08-19T00:08:41;100517.13;;;27.48;77.59
33404;BME280;19751;40.274;18.268;2022-08-19T00:11:08;100513.53;;;27.48;76.45
33404;BME280;19751;40.274;18.268;2022-08-19T00:13:34;100511.91;;;27.47;75.70
33404;BME280;19751;40.274;18.268;2022-08-19T00:15:59;100512.31;;;27.40;75.60
33404;BME280;19751;40.274;18.268;2022-08-19T00:18:26;100513.03;;;27.32;75.55
33404;BME280;19751;40.274;18.268;2022-08-19T00:20:51;100510.06;;;27.29;76.11
33404;BME280;19751;40.274;18.268;2022-08-19T00:23:17;100513.94;;;27.27;75.73
33404;BME280;19751;40.274;18.268;2022-08-19T00:25:42;100510.38;;;27.27;75.49
33404;BME280;19751;40.274;18.268;2022-08-19T00:28:08;100496.53;;;27.27;74.83
33404;BME280;19751;40.274;18.268;2022-08-19T00:30:33;100498.50;;;27.26;74.30
33404;BME280;19751;40.274;18.268;2022-08-19T00:32:59;100501.88;;;27.23;73.93
33404;BME280;19751;40.274;18.268;2022-08-19T00:35:24;100491.34;;;27.25;73.03
33404;BME280;19751;40.274;18.268;2022-08-19T00:37:53;100485.81;;;27.25;72.37
33404;BME280;19751;40.274;18.268;2022-08-19T00:40:18;100481.38;;;27.24;72.32
33404;BME280;19751;40.274;18.268;2022-08-19T00:42:45;100480.66;;;27.19;72.74
33404;BME280;19751;40.274;18.268;2022-08-19T00:45:15;100478.84;;;27.14;73.58
33404;BME280;19751;40.274;18.268;2022-08-19T00:47:42;100481.97;;;27.08;73.76
33404;BME280;19751;40.274;18.268;2022-08-19T00:50:10;100479.63;;;27.01;74.10
33404;BME280;19751;40.274;18.268;2022-08-19T00:52:39;100474.91;;;27.01;73.46
33404;BME280;19751;40.274;18.268;2022-08-19T00:55:16;100468.56;;;27.01;72.80
33404;BME280;19751;40.274;18.268;2022-08-19T00:57:47;100461.78;;;26.93;72.15
33404;BME280;19751;40.274;18.268;2022-08-19T01:00:16;100463.75;;;26.93;72.01
33404;BME280;19751;40.274;18.268;2022-08-19T01:02:42;100462.59;;;26.94;71.70
33404;BME280;19751;40.274;18.268;2022-08-19T01:05:12;100459.63;;;26.90;71.68
33404;BME280;19751;40.274;18.268;2022-08-19T01:07:40;100466.06;;;26.86;71.91
33404;BME280;19751;40.274;18.268;2022-08-19T01:10:09;100468.84;;;26.86;71.90
33404;BME280;19751;40.274;18.268;2022-08-19T01:12:35;100466.06;;;26.86;71.94
33404;BME280;19751;40.274;18.268;2022-08-19T01:15:02;100466.06;;;26.86;71.74
33404;BME280;19751;40.274;18.268;2022-08-19T01:17:28;100463.84;;;26.88;71.68
33404;BME280;19751;40.274;18.268;2022-08-19T01:19:53;100462.72;;;26.89;71.53
33404;BME280;19751;40.274;18.268;2022-08-19T01:22:28;100456.38;;;26.88;71.45
33404;BME280;19751;40.274;18.268;2022-08-19T01:24:56;100456.97;;;26.85;71.65
33404;BME280;19751;40.274;18.268;2022-08-19T01:27:22;100449.00;;;26.84;72.19
33404;BME280;19751;40.274;18.268;2022-08-19T01:29:47;100452.88;;;26.83;72.12
33404;BME280;19751;40.274;18.268;2022-08-19T01:32:16;100449.28;;;26.82;72.21
33404;BME280;19751;40.274;18.268;2022-08-19T01:34:42;100454.59;;;26.78;72.39
33404;BME280;19751;40.274;18.268;2022-08-19T01:37:12;100448.88;;;26.75;72.48
33404;BME280;19751;40.274;18.268;2022-08-19T01:39:40;100444.19;;;26.75;71.87
33404;BME280;19751;40.274;18.268;2022-08-19T01:42:07;100441.91;;;26.77;72.00
33404;BME280;19751;40.274;18.268;2022-08-19T01:44:36;100447.44;;;26.77;72.11
33404;BME280;19751;40.274;18.268;2022-08-19T01:47:03;100449.78;;;26.70;72.43
33404;BME280;19751;40.274;18.268;2022-08-19T01:49:29;100451.22;;;26.68;72.57
33404;BME280;19751;40.274;18.268;2022-08-19T01:51:55;100445.91;;;26.71;72.67
33404;BME280;19751;40.274;18.268;2022-08-19T01:54:22;100440.88;;;26.73;72.69
33404;BME280;19751;40.274;18.268;2022-08-19T01:56:49;100438.94;;;26.74;72.51
33404;BME280;19751;40.274;18.268;2022-08-19T01:59:18;100440.28;;;26.76;72.40
33404;BME280;19751;40.274;18.268;2022-08-19T02:01:45;100445.22;;;26.80;71.68
33404;BME280;19751;40.274;18.268;2022-08-19T02:04:11;100443.53;;;26.78;71.67
33404;BME280;19751;40.274;18.268;2022-08-19T02:06:36;100451.34;;;26.76;72.18
33404;BME280;19751;40.274;18.268;2022-08-19T02:09:06;100451.94;;;26.73;72.50
33404;BME280;19751;40.274;18.268;2022-08-19T02:11:34;100446.19;;;26.70;72.94
33404;BME280;19751;40.274;18.268;2022-08-19T02:14:04;100445.97;;;26.66;73.45
33404;BME280;19751;40.274;18.268;2022-08-19T02:16:31;100445.47;;;26.64;73.60
33404;BME280;19751;40.274;18.268;2022-08-19T02:18:58;100445.97;;;26.66;73.40
33404;BME280;19751;40.274;18.268;2022-08-19T02:21:26;100451.00;;;26.64;73.58
33404;BME280;19751;40.274;18.268;2022-08-19T02:23:52;100448.03;;;26.61;73.37
33404;BME280;19751;40.274;18.268;2022-08-19T02:26:18;100449.53;;;26.53;73.90
33404;BME280;19751;40.274;18.268;2022-08-19T02:28:44;100451.88;;;26.46;74.25
33404;BME280;19751;40.274;18.268;2022-08-19T02:31:12;100445.81;;;26.44;74.63
33404;BME280;19751;40.274;18.268;2022-08-19T02:33:38;100453.00;;;26.45;74.36
33404;BME280;19751;40.274;18.268;2022-08-19T02:36:05;100455.75;;;26.45;74.33
33404;BME280;19751;40.274;18.268;2022-08-19T02:38:31;100450.50;;;26.43;74.31
33404;BME280;19751;40.274;18.268;2022-08-19T02:41:04;100449.16;;;26.41;74.69
33404;BME280;19751;40.274;18.268;2022-08-19T02:43:31;100450.59;;;26.38;74.46
33404;BME280;19751;40.274;18.268;2022-08-19T02:45:57;100453.16;;;26.35;74.83
33404;BME280;19751;40.274;18.268;2022-08-19T02:48:24;100456.19;;;26.33;75.18
33404;BME280;19751;40.274;18.268;2022-08-19T02:50:52;100450.97;;;26.32;75.01
33404;BME280;19751;40.274;18.268;2022-08-19T02:53:23;100455.16;;;26.29;75.53
33404;BME280;19751;40.274;18.268;2022-08-19T02:55:49;100452.72;;;26.27;76.29
33404;BME280;19751;40.274;18.268;2022-08-19T02:58:16;100446.47;;;26.22;75.78
33404;BME280;19751;40.274;18.268;2022-08-19T03:00:48;100445.69;;;26.16;75.50
33404;BME280;19751;40.274;18.268;2022-08-19T03:03:14;100443.63;;;26.08;75.86
33404;BME280;19751;40.274;18.268;2022-08-19T03:05:43;100447.16;;;25.95;76.32
33404;BME280;19751;40.274;18.268;2022-08-19T03:08:29;100451.03;;;25.94;76.86
33404;BME280;19751;40.274;18.268;2022-08-19T03:11:35;100450.44;;;25.97;76.37
33404;BME280;19751;40.274;18.268;2022-08-19T03:14:30;100441.25;;;26.01;76.12
33404;BME280;19751;40.274;18.268;2022-08-19T03:17:36;100442.06;;;26.02;76.13
33404;BME280;19751;40.274;18.268;2022-08-19T03:20:23;100445.19;;;25.95;76.55
33404;BME280;19751;40.274;18.268;2022-08-19T03:23:06;100434.84;;;25.87;77.27
33404;BME280;19751;40.274;18.268;2022-08-19T03:25:41;100431.34;;;25.82;77.85
33404;BME280;19751;40.274;18.268;2022-08-19T03:28:10;100433.59;;;25.80;78.42
33404;BME280;19751;40.274;18.268;2022-08-19T03:31:10;100432.53;;;25.75;78.84
33404;BME280;19751;40.274;18.268;2022-08-19T03:33:52;100428.50;;;25.68;79.42
33404;BME280;19751;40.274;18.268;2022-08-19T03:36:40;100429.09;;;25.65;79.93
33404;BME280;19751;40.274;18.268;2022-08-19T03:39:06;100434.91;;;25.63;80.30
33404;BME280;19751;40.274;18.268;2022-08-19T03:41:39;100433.31;;;25.57;80.54
33404;BME280;19751;40.274;18.268;2022-08-19T03:44:05;100439.97;;;25.56;80.72
33404;BME280;19751;40.274;18.268;2022-08-19T03:46:32;100435.50;;;25.60;81.00
33404;BME280;19751;40.274;18.268;2022-08-19T03:49:00;100434.28;;;25.66;81.11
33404;BME280;19751;40.274;18.268;2022-08-19T03:51:31;100441.91;;;25.74;80.79
33404;BME280;19751;40.274;18.268;2022-08-19T03:53:59;100433.59;;;25.80;81.01
33404;BME280;19751;40.274;18.268;2022-08-19T03:56:27;100437.19;;;25.80;80.48
33404;BME280;19751;40.274;18.268;2022-08-19T03:58:54;100442.38;;;25.82;80.47
33404;BME280;19751;40.274;18.268;2022-08-19T04:01:24;100454.53;;;25.81;80.59
33404;BME280;19751;40.274;18.268;2022-08-19T04:03:52;100454.00;;;25.78;81.08
33404;BME280;19751;40.274;18.268;2022-08-19T04:06:21;100452.94;;;25.74;81.18
33404;BME280;19751;40.274;18.268;2022-08-19T04:08:50;100459.53;;;25.78;81.22
33404;BME280;19751;40.274;18.268;2022-08-19T04:11:19;100458.03;;;25.86;81.00
33404;BME280;19751;40.274;18.268;2022-08-19T04:13:49;100458.28;;;25.90;80.78
33404;BME280;19751;40.274;18.268;2022-08-19T04:16:17;100464.91;;;25.89;80.77
33404;BME280;19751;40.274;18.268;2022-08-19T04:18:43;100459.16;;;25.85;81.05
33404;BME280;19751;40.274;18.268;2022-08-19T04:21:16;100458.63;;;25.83;80.76
33404;BME280;19751;40.274;18.268;2022-08-19T04:23:42;100455.66;;;25.80;80.92
33404;BME280;19751;40.274;18.268;2022-08-19T04:26:13;100455.66;;;25.80;80.88
33404;BME280;19751;40.274;18.268;2022-08-19T04:28:39;100447.59;;;25.83;80.53
33404;BME280;19751;40.274;18.268;2022-08-19T04:31:05;100442.03;;;25.88;80.10
33404;BME280;19751;40.274;18.268;2022-08-19T04:33:30;100442.03;;;25.88;79.65
33404;BME280;19751;40.274;18.268;2022-08-19T04:35:56;100453.56;;;25.90;79.38
33404;BME280;19751;40.274;18.268;2022-08-19T04:38:23;100445.50;;;25.94;79.25
33404;BME280;19751;40.274;18.268;2022-08-19T04:40:50;100457.06;;;25.96;78.88
33404;BME280;19751;40.274;18.268;2022-08-19T04:43:37;100454.38;;;25.91;79.05
33404;BME280;19751;40.274;18.268;2022-08-19T04:46:10;100452.84;;;25.85;79.25
33404;BME280;19751;40.274;18.268;2022-08-19T04:48:37;100449.53;;;25.83;79.38
33404;BME280;19751;40.274;18.268;2022-08-19T04:51:07;100447.91;;;25.82;79.97
33404;BME280;19751;40.274;18.268;2022-08-19T04:53:36;100445.97;;;25.82;80.23
33404;BME280;19751;40.274;18.268;2022-08-19T04:56:08;100443.75;;;25.84;80.43
33404;BME280;19751;40.274;18.268;2022-08-19T04:58:35;100449.91;;;25.95;80.31
33404;BME280;19751;40.274;18.268;2022-08-19T05:01:02;100456.09;;;26.06;80.31
33404;BME280;19751;40.274;18.268;2022-08-19T05:03:28;100449.91;;;26.14;79.81
33404;BME280;19751;40.274;18.268;2022-08-19T05:06:08;100459.13;;;26.23;79.76
33404;BME280;19751;40.274;18.268;2022-08-19T05:08:37;100458.22;;;26.27;79.82
33404;BME280;19751;40.274;18.268;2022-08-19T05:11:10;100450.97;;;26.32;79.41
33404;BME280;19751;40.274;18.268;2022-08-19T05:13:36;100461.66;;;26.38;79.57
33404;BME280;19751;40.274;18.268;2022-08-19T05:16:02;100456.34;;;26.42;79.77
33404;BME280;19751;40.274;18.268;2022-08-19T05:18:27;100456.28;;;26.47;79.64
33404;BME280;19751;40.274;18.268;2022-08-19T05:21:14;100456.41;;;26.56;79.53
33404;BME280;19751;40.274;18.268;2022-08-19T05:23:58;100450.47;;;26.62;79.09
33404;BME280;19751;40.274;18.268;2022-08-19T05:26:25;100456.44;;;26.69;78.81
33404;BME280;19751;40.274;18.268;2022-08-19T05:28:54;100456.88;;;26.76;78.86
33404;BME280;19751;40.274;18.268;2022-08-19T05:31:20;100467.50;;;26.83;78.82
33404;BME280;19751;40.274;18.268;2022-08-19T05:33:46;100457.47;;;26.87;78.61
33404;BME280;19751;40.274;18.268;2022-08-19T05:36:11;100458.81;;;26.90;78.85
33404;BME280;19751;40.274;18.268;2022-08-19T05:38:37;100465.97;;;26.91;78.77
33404;BME280;19751;40.274;18.268;2022-08-19T05:41:10;100463.44;;;26.94;78.40
33404;BME280;19751;40.274;18.268;2022-08-19T05:43:36;100467.75;;;27.00;78.26
33404;BME280;19751;40.274;18.268;2022-08-19T05:46:03;100464.34;;;27.03;78.09
33404;BME280;19751;40.274;18.268;2022-08-19T05:48:31;100461.50;;;27.09;78.16
33404;BME280;19751;40.274;18.268;2022-08-19T05:50:56;100459.78;;;27.13;78.28
33404;BME280;19751;40.274;18.268;2022-08-19T05:53:23;100457.75;;;27.18;77.98
33404;BME280;19751;40.274;18.268;2022-08-19T05:55:49;100457.50;;;27.29;77.67
33404;BME280;19751;40.274;18.268;2022-08-19T05:58:14;100458.13;;;27.39;77.69
33404;BME280;19751;40.274;18.268;2022-08-19T06:00:43;100458.22;;;27.48;77.64
33404;BME280;19751;40.274;18.268;2022-08-19T06:03:08;100463.34;;;27.55;78.64
33404;BME280;19751;40.274;18.268;2022-08-19T06:05:35;100457.38;;;27.61;78.76
33404;BME280;19751;40.274;18.268;2022-08-19T06:08:01;100457.28;;;27.66;79.03
33404;BME280;19751;40.274;18.268;2022-08-19T06:10:27;100460.75;;;27.72;79.91
33404;BME280;19751;40.274;18.268;2022-08-19T06:12:53;100452.69;;;27.75;80.61
33404;BME280;19751;40.274;18.268;2022-08-19T06:15:19;100454.72;;;27.84;82.58
33404;BME280;19751;40.274;18.268;2022-08-19T06:17:44;100458.97;;;27.90;82.80
33404;BME280;19751;40.274;18.268;2022-08-19T06:20:12;100465.22;;;27.95;83.35
33404;BME280;19751;40.274;18.268;2022-08-19T06:22:43;100463.66;;;28.03;83.86
33404;BME280;19751;40.274;18.268;2022-08-19T06:25:09;100459.97;;;28.08;84.18
33404;BME280;19751;40.274;18.268;2022-08-19T06:27:35;100463.41;;;28.13;84.19
33404;BME280;19751;40.274;18.268;2022-08-19T06:30:03;100464.09;;;28.19;84.46
33404;BME280;19751;40.274;18.268;2022-08-19T06:32:28;100463.97;;;28.24;84.00
33404;BME280;19751;40.274;18.268;2022-08-19T06:34:54;100467.94;;;28.32;83.94
33404;BME280;19751;40.274;18.268;2022-08-19T06:37:20;100464.78;;;28.38;82.99
33404;BME280;19751;40.274;18.268;2022-08-19T06:39:47;100462.69;;;28.44;82.80
33404;BME280;19751;40.274;18.268;2022-08-19T06:42:12;100457.00;;;28.49;81.76
33404;BME280;19751;40.274;18.268;2022-08-19T06:44:43;100462.09;;;28.56;77.10
33404;BME280;19751;40.274;18.268;2022-08-19T06:47:11;100463.63;;;28.62;76.00
33404;BME280;19751;40.274;18.268;2022-08-19T06:49:37;100464.50;;;28.71;75.29
33404;BME280;19751;40.274;18.268;2022-08-19T06:52:04;100450.69;;;28.80;74.94
33404;BME280;19751;40.274;18.268;2022-08-19T06:54:30;100457.41;;;28.87;73.75
33404;BME280;19751;40.274;18.268;2022-08-19T06:56:58;100452.19;;;28.94;71.73
33404;BME280;19751;40.274;18.268;2022-08-19T06:59:27;100463.84;;;29.05;70.63
33404;BME280;19751;40.274;18.268;2022-08-19T07:01:55;100458.34;;;29.14;69.56
33404;BME280;19751;40.274;18.268;2022-08-19T07:04:24;100458.38;;;29.22;69.05
33404;BME280;19751;40.274;18.268;2022-08-19T07:06:59;100473.06;;;29.32;68.84
33404;BME280;19751;40.274;18.268;2022-08-19T07:09:25;100469.84;;;29.38;68.86
33404;BME280;19751;40.274;18.268;2022-08-19T07:11:52;100474.09;;;29.44;68.61
33404;BME280;19751;40.274;18.268;2022-08-19T07:14:20;100483.09;;;29.50;68.98
33404;BME280;19751;40.274;18.268;2022-08-19T07:16:50;100477.38;;;29.55;69.10
33404;BME280;19751;40.274;18.268;2022-08-19T07:19:18;100482.16;;;29.63;68.02
33404;BME280;19751;40.274;18.268;2022-08-19T07:21:43;100477.28;;;29.69;64.59
33404;BME280;19751;40.274;18.268;2022-08-19T07:24:09;100479.41;;;29.81;62.50
33404;BME280;19751;40.274;18.268;2022-08-19T07:26:41;100483.34;;;29.88;62.26
33404;BME280;19751;40.274;18.268;2022-08-19T07:29:07;100485.47;;;30.00;61.99
33404;BME280;19751;40.274;18.268;2022-08-19T07:31:33;100480.75;;;30.09;61.63
33404;BME280;19751;40.274;18.268;2022-08-19T07:34:04;100486.31;;;30.18;61.15
33404;BME280;19751;40.274;18.268;2022-08-19T07:36:36;100481.56;;;30.27;61.29
33404;BME280;19751;40.274;18.268;2022-08-19T07:39:10;100484.38;;;30.36;61.63
33404;BME280;19751;40.274;18.268;2022-08-19T07:41:37;100481.41;;;30.41;62.08
33404;BME280;19751;40.274;18.268;2022-08-19T07:44:04;100476.16;;;30.48;61.85
33404;BME280;19751;40.274;18.268;2022-08-19T07:46:36;100475.66;;;30.55;61.33
33404;BME280;19751;40.274;18.268;2022-08-19T07:49:03;100481.84;;;30.60;61.50
33404;BME280;19751;40.274;18.268;2022-08-19T07:51:30;100462.56;;;30.64;60.65
33404;BME280;19751;40.274;18.268;2022-08-19T07:53:56;100469.25;;;30.71;nan
33404;BME280;19751;40.274;18.268;2022-08-19T07:56:22;100471.03;;;30.85;56.85
33404;BME280;19751;40.274;18.268;2022-08-19T07:58:50;100478.34;;;30.98;57.02
33404;BME280;19751;40.274;18.268;2022-08-19T08:01:20;100479.13;;;31.07;56.75
33404;BME280;19751;40.274;18.268;2022-08-19T08:03:47;100484.31;;;31.17;56.78
33404;BME280;19751;40.274;18.268;2022-08-19T08:06:31;100487.41;;;31.25;56.88
33404;BME280;19751;40.274;18.268;2022-08-19T08:09:16;100490.00;;;31.30;56.41
33404;BME280;19751;40.274;18.268;2022-08-19T08:11:56;100480.00;;;31.37;56.73
33404;BME280;19751;40.274;18.268;2022-08-19T08:14:27;100475.38;;;31.41;56.89
33404;BME280;19751;40.274;18.268;2022-08-19T08:16:53;100482.06;;;31.49;52.36
33404;BME280;19751;40.274;18.268;2022-08-19T08:19:21;100470.19;;;31.61;50.83
33404;BME280;19751;40.274;18.268;2022-08-19T08:21:48;100471.63;;;31.67;50.61
33404;BME280;19751;40.274;18.268;2022-08-19T08:24:15;100477.34;;;31.71;51.52
33404;BME280;19751;40.274;18.268;2022-08-19T08:26:41;100473.53;;;31.75;52.10
33404;BME280;19751;40.274;18.268;2022-08-19T08:29:12;100474.84;;;31.78;52.68
33404;BME280;19751;40.274;18.268;2022-08-19T08:31:40;100482.94;;;31.91;50.67
33404;BME280;19751;40.274;18.268;2022-08-19T08:34:07;100481.97;;;32.08;50.29
33404;BME280;19751;40.274;18.268;2022-08-19T08:36:36;100492.16;;;32.25;49.01
33404;BME280;19751;40.274;18.268;2022-08-19T08:39:02;100500.25;;;32.39;49.10
33404;BME280;19751;40.274;18.268;2022-08-19T08:41:37;100499.56;;;32.42;49.02
33404;BME280;19751;40.274;18.268;2022-08-19T08:44:06;100497.19;;;32.53;51.32
33404;BME280;19751;40.274;18.268;2022-08-19T08:51:40;100522.56;;;32.72;51.32
33404;BME280;19751;40.274;18.268;2022-08-19T08:54:10;100524.78;;;32.79;51.51
33404;BME280;19751;40.274;18.268;2022-08-19T08:56:42;100526.09;;;32.81;51.43
33404;BME280;19751;40.274;18.268;2022-08-19T08:59:30;100527.03;;;32.85;52.64
33404;BME280;19751;40.274;18.268;2022-08-19T09:02:00;100526.91;;;32.82;54.30
33404;BME280;19751;40.274;18.268;2022-08-19T09:04:25;100521.53;;;32.77;55.79
33404;BME280;19751;40.274;18.268;2022-08-19T09:09:41;100528.06;;;32.81;57.87
33404;BME280;19751;40.274;18.268;2022-08-19T09:12:48;100533.28;;;32.82;58.92
33404;BME280;19751;40.274;18.268;2022-08-19T09:15:22;100529.19;;;32.80;58.65
33404;BME280;19751;40.274;18.268;2022-08-19T09:17:50;100530.72;;;32.77;60.82
33404;BME280;19751;40.274;18.268;2022-08-19T09:20:20;100527.94;;;32.77;61.45
33404;BME280;19751;40.274;18.268;2022-08-19T09:22:46;100528.84;;;32.69;62.59
33404;BME280;19751;40.274;18.268;2022-08-19T09:25:16;100532.75;;;32.68;66.03
33404;BME280;19751;40.274;18.268;2022-08-19T09:27:42;100535.91;;;32.66;69.68
33404;BME280;19751;40.274;18.268;2022-08-19T09:30:12;100537.16;;;32.57;72.50
33404;BME280;19751;40.274;18.268;2022-08-19T09:32:38;100534.66;;;32.43;73.25
33404;BME280;19751;40.274;18.268;2022-08-19T09:35:07;100542.47;;;32.29;73.97
33404;BME280;19751;40.274;18.268;2022-08-19T09:37:33;100545.66;;;32.18;73.76
33404;BME280;19751;40.274;18.268;2022-08-19T09:39:59;100547.50;;;32.14;73.05
33404;BME280;19751;40.274;18.268;2022-08-19T09:42:24;100547.94;;;31.96;71.84
33404;BME280;19751;40.274;18.268;2022-08-19T09:44:50;100540.97;;;31.89;72.66
33404;BME280;19751;40.274;18.268;2022-08-19T09:47:15;100551.22;;;31.98;72.36
33404;BME280;19751;40.274;18.268;2022-08-19T09:49:42;100540.69;;;32.03;71.20
33404;BME280;19751;40.274;18.268;2022-08-19T09:52:09;100548.19;;;32.11;69.85
33404;BME280;19751;40.274;18.268;2022-08-19T09:54:36;100536.47;;;32.18;67.16
33404;BME280;19751;40.274;18.268;2022-08-19T09:57:03;100537.09;;;32.24;65.49
33404;BME280;19751;40.274;18.268;2022-08-19T09:59:29;100533.56;;;32.35;61.19
33404;BME280;19751;40.274;18.268;2022-08-19T10:01:55;100537.44;;;32.43;60.29
33404;BME280;19751;40.274;18.268;2022-08-19T10:04:21;100530.03;;;32.47;61.33
33404;BME280;19751;40.274;18.268;2022-08-19T10:06:47;100529.13;;;32.55;60.59
33404;BME280;19751;40.274;18.268;2022-08-19T10:09:16;100526.47;;;32.59;60.36
33404;BME280;19751;40.274;18.268;2022-08-19T10:11:44;100520.22;;;32.62;58.03
33404;BME280;19751;40.274;18.268;2022-08-19T10:14:15;100520.69;;;32.64;59.42
33404;BME280;19751;40.274;18.268;2022-08-19T10:16:42;100513.25;;;32.68;59.55
33404;BME280;19751;40.274;18.268;2022-08-19T10:19:08;100515.13;;;32.64;58.73
33404;BME280;19751;40.274;18.268;2022-08-19T10:21:35;100509.31;;;32.69;56.73
33404;BME280;19751;40.274;18.268;2022-08-19T10:24:03;100506.66;;;32.73;56.33
33404;BME280;19751;40.274;18.268;2022-08-19T10:26:35;100502.03;;;32.77;56.23
33404;BME280;19751;40.274;18.268;2022-08-19T10:29:02;100495.72;;;32.80;55.19
33404;BME280;19751;40.274;18.268;2022-08-19T10:31:31;100491.50;;;32.95;53.58
33404;BME280;19751;40.274;18.268;2022-08-19T10:33:57;100496.41;;;33.10;52.96
33404;BME280;19751;40.274;18.268;2022-08-19T10:36:33;100483.72;;;33.12;51.70
33404;BME280;19751;40.274;18.268;2022-08-19T10:39:04;100483.84;;;33.16;51.41
33404;BME280;19751;40.274;18.268;2022-08-19T10:41:32;100485.94;;;33.19;50.88
33404;BME280;19751;40.274;18.268;2022-08-19T10:44:00;100472.25;;;33.26;50.48
33404;BME280;19751;40.274;18.268;2022-08-19T10:46:27;100476.97;;;33.26;50.46
33404;BME280;19751;40.274;18.268;2022-08-19T10:48:53;100464.44;;;33.20;51.14
33404;BME280;19751;40.274;18.268;2022-08-19T10:51:20;100456.41;;;33.18;50.88
33404;BME280;19751;40.274;18.268;2022-08-19T10:54:04;100454.44;;;33.19;51.01
33404;BME280;19751;40.274;18.268;2022-08-19T10:56:30;100452.09;;;33.21;50.96
33404;BME280;19751;40.274;18.268;2022-08-19T10:59:15;100447.13;;;33.26;50.75
33404;BME280;19751;40.274;18.268;2022-08-19T11:01:43;100440.81;;;33.29;50.04
33404;BME280;19751;40.274;18.268;2022-08-19T11:04:09;100436.88;;;33.30;49.95
33404;BME280;19751;40.274;18.268;2022-08-19T11:06:36;100423.50;;;33.36;49.53
33404;BME280;19751;40.274;18.268;2022-08-19T11:09:04;100423.03;;;33.46;48.68
33404;BME280;19751;40.274;18.268;2022-08-19T11:11:30;100427.34;;;33.56;47.40
33404;BME280;19751;40.274;18.268;2022-08-19T11:13:58;100429.19;;;33.64;45.63
33404;BME280;19751;40.274;18.268;2022-08-19T11:16:25;100428.44;;;33.67;45.38
33404;BME280;19751;40.274;18.268;2022-08-19T11:18:55;100426.25;;;33.73;45.30
33404;BME280;19751;40.274;18.268;2022-08-19T11:21:24;100412.84;;;33.78;45.41
33404;BME280;19751;40.274;18.268;2022-08-19T11:23:54;100404.50;;;33.94;44.02
33404;BME280;19751;40.274;18.268;2022-08-19T11:26:21;100393.25;;;34.19;42.07
33404;BME280;19751;40.274;18.268;2022-08-19T11:28:47;100387.59;;;34.31;41.60
33404;BME280;19751;40.274;18.268;2022-08-19T11:31:18;100385.88;;;34.42;41.59
33404;BME280;19751;40.274;18.268;2022-08-19T11:33:44;100382.31;;;34.57;39.29
33404;BME280;19751;40.274;18.268;2022-08-19T11:36:11;100368.53;;;34.80;38.75
33404;BME280;19751;40.274;18.268;2022-08-19T11:38:37;100375.25;;;34.95;37.81
33404;BME280;19751;40.274;18.268;2022-08-19T11:41:05;100372.47;;;34.95;37.72
33404;BME280;19751;40.274;18.268;2022-08-19T11:43:32;100361.91;;;35.04;38.48
33404;BME280;19751;40.274;18.268;2022-08-19T11:45:58;100366.78;;;35.07;39.80
33404;BME280;19751;40.274;18.268;2022-08-19T11:48:24;100374.84;;;35.09;39.62
33404;BME280;19751;40.274;18.268;2022-08-19T11:50:52;100385.19;;;35.08;40.33
33404;BME280;19751;40.274;18.268;2022-08-19T11:53:19;100392.31;;;35.22;38.35
33404;BME280;19751;40.274;18.268;2022-08-19T11:55:46;100387.84;;;35.36;37.20
33404;BME280;19751;40.274;18.268;2022-08-19T11:58:13;100396.59;;;35.51;36.65
33404;BME280;19751;40.274;18.268;2022-08-19T12:00:39;100405.69;;;35.64;37.00
33404;BME280;19751;40.274;18.268;2022-08-19T12:03:05;100397.88;;;35.73;37.24
33404;BME280;19751;40.274;18.268;2022-08-19T12:05:30;100394.34;;;35.76;37.16
33404;BME280;19751;40.274;18.268;2022-08-19T12:07:56;100410.47;;;35.82;37.37
33404;BME280;19751;40.274;18.268;2022-08-19T12:10:22;100423.53;;;35.94;37.63
33404;BME280;19751;40.274;18.268;2022-08-19T12:12:48;100414.13;;;36.02;36.76
33404;BME280;19751;40.274;18.268;2022-08-19T12:15:14;100419.41;;;36.07;36.71
33404;BME280;19751;40.274;18.268;2022-08-19T12:17:40;100422.75;;;36.13;36.64
33404;BME280;19751;40.274;18.268;2022-08-19T12:20:09;100423.38;;;36.26;36.10
33404;BME280;19751;40.274;18.268;2022-08-19T12:22:36;100418.34;;;36.35;35.08
33404;BME280;19751;40.274;18.268;2022-08-19T12:25:04;100418.09;;;36.44;35.01
33404;BME280;19751;40.274;18.268;2022-08-19T12:27:30;100420.28;;;36.50;33.74
33404;BME280;19751;40.274;18.268;2022-08-19T12:29:55;100411.16;;;36.57;33.48
33404;BME280;19751;40.274;18.268;2022-08-19T12:32:22;100410.09;;;36.65;34.17
33404;BME280;19751;40.274;18.268;2022-08-19T12:34:49;100415.09;;;36.75;32.98
33404;BME280;19751;40.274;18.268;2022-08-19T12:37:14;100430.00;;;36.79;33.64
33404;BME280;19751;40.274;18.268;2022-08-19T12:39:41;100430.00;;;36.56;45.35
33404;BME280;19751;40.274;18.268;2022-08-19T12:42:08;100423.63;;;36.17;51.87
33404;BME280;19751;40.274;18.268;2022-08-19T12:44:36;100424.22;;;35.52;55.82
33404;BME280;19751;40.274;18.268;2022-08-19T12:47:02;100432.97;;;35.00;59.14
33404;BME280;19751;40.274;18.268;2022-08-19T12:49:30;100424.47;;;34.65;60.13
33404;BME280;19751;40.274;18.268;2022-08-19T12:51:56;100437.34;;;34.53;56.76
33404;BME280;19751;40.274;18.268;2022-08-19T12:54:23;100416.56;;;34.38;57.34
33404;BME280;19751;40.274;18.268;2022-08-19T12:56:49;100414.97;;;34.25;56.03